createdAt,value
2022-08-27T00:00:41.829Z,95452.00
2022-08-27T00:06:18.430Z,95447.00
2022-08-27T00:12:02.586Z,95449.00
2022-08-27T00:17:44.559Z,95462.00
2022-08-27T00:23:23.227Z,95462.00
2022-08-27T00:28:59.274Z,95468.00
2022-08-27T00:34:35.553Z,95459.00
2022-08-27T00:40:18.701Z,95480.00
2022-08-27T00:45:49.501Z,95477.00
2022-08-27T00:51:23.641Z,95475.00
2022-08-27T00:56:55.316Z,95472.00
2022-08-27T01:02:30.770Z,95465.00
2022-08-27T01:08:12.394Z,95465.00
2022-08-27T01:14:00.410Z,95465.00
2022-08-27T01:19:53.029Z,95446.00
2022-08-27T01:25:26.650Z,95453.00
2022-08-27T01:31:05.647Z,95452.00
2022-08-27T01:36:38.745Z,95443.00
2022-08-27T01:42:25.139Z,95463.00
2022-08-27T01:47:53.871Z,95448.00
2022-08-27T01:53:28.566Z,95462.00
2022-08-27T01:58:58.550Z,95458.00
2022-08-27T02:04:30.449Z,95463.00
2022-08-27T02:09:59.090Z,95462.00
2022-08-27T02:15:32.240Z,95462.00
2022-08-27T02:21:07.097Z,95449.00
2022-08-27T02:26:51.473Z,95441.00
2022-08-27T02:32:45.329Z,95443.00
2022-08-27T02:38:30.437Z,95432.00
2022-08-27T02:44:04.499Z,95430.00
2022-08-27T02:49:56.135Z,95432.00
2022-08-27T02:55:34.669Z,95431.00
2022-08-27T03:01:11.194Z,95441.00
2022-08-27T03:06:54.120Z,95434.00
2022-08-27T03:12:53.177Z,95434.00
2022-08-27T03:18:36.798Z,95442.00
2022-08-27T03:24:11.542Z,95438.00
2022-08-27T03:29:48.861Z,95444.00
2022-08-27T03:35:17.971Z,95446.00
2022-08-27T03:40:46.580Z,95452.00
2022-08-27T03:46:20.534Z,95441.00
2022-08-27T03:51:56.177Z,95448.00
2022-08-27T03:57:24.750Z,95446.00
2022-08-27T04:02:56.056Z,95441.00
2022-08-27T04:08:26.154Z,95448.00
2022-08-27T04:14:03.353Z,95434.00
2022-08-27T04:19:54.334Z,95442.00
2022-08-27T04:25:29.651Z,95452.00
2022-08-27T04:31:04.047Z,95445.00
2022-08-27T04:36:34.467Z,95459.00
2022-08-27T04:42:10.204Z,95462.00
2022-08-27T04:47:41.852Z,95453.00
2022-08-27T04:53:18.346Z,95459.00
2022-08-27T04:58:56.556Z,95470.00
2022-08-27T05:04:30.573Z,95471.00
2022-08-27T05:10:01.171Z,95474.00
2022-08-27T05:15:39.779Z,95472.00
2022-08-27T05:21:24.185Z,95469.00
2022-08-27T05:26:57.609Z,95470.00
2022-08-27T05:32:35.011Z,95463.00
2022-08-27T05:38:06.850Z,95463.00
2022-08-27T05:43:40.728Z,95463.00
2022-08-27T05:49:34.921Z,95465.00
2022-08-27T05:55:05.990Z,95468.00
2022-08-27T06:01:07.088Z,95468.00
2022-08-27T06:06:50.200Z,95477.00
2022-08-27T06:12:26.983Z,95475.00
2022-08-27T06:17:58.055Z,95466.00
2022-08-27T06:23:28.163Z,95469.00
2022-08-27T06:28:58.234Z,95463.00
2022-08-27T06:34:28.987Z,95470.00
2022-08-27T06:39:59.585Z,95471.00
2022-08-27T06:45:30.797Z,95472.00
2022-08-27T06:51:02.168Z,95474.00
2022-08-27T06:56:31.925Z,95473.00
2022-08-27T07:02:02.604Z,95468.00
2022-08-27T07:07:38.151Z,95481.00
2022-08-27T07:13:17.082Z,95479.00
2022-08-27T07:18:46.446Z,95480.00
2022-08-27T07:24:15.664Z,95470.00
2022-08-27T07:29:56.108Z,95480.00
2022-08-27T07:35:31.977Z,95492.00
2022-08-27T07:41:00.900Z,95496.00
2022-08-27T07:46:28.836Z,95497.00
2022-08-27T07:51:56.755Z,95507.00
2022-08-27T07:57:24.682Z,95506.00
2022-08-27T08:02:52.630Z,95509.00
2022-08-27T08:08:21.285Z,95521.00
2022-08-27T08:13:49.738Z,95518.00
2022-08-27T08:19:18.176Z,95520.00
2022-08-27T08:24:46.023Z,95522.00
2022-08-27T08:30:14.849Z,95524.00
2022-08-27T08:35:42.967Z,95532.00
2022-08-27T08:41:41.485Z,95528.00
2022-08-27T08:47:32.156Z,95531.00
2022-08-27T08:53:11.617Z,95526.00
2022-08-27T08:58:50.189Z,95534.00
2022-08-27T09:04:18.461Z,95528.00
2022-08-27T09:10:14.710Z,95529.00
2022-08-27T09:15:42.687Z,95526.00
2022-08-27T09:21:36.911Z,95533.00
2022-08-27T09:27:05.296Z,95533.00
2022-08-27T09:32:35.043Z,95533.00
2022-08-27T09:38:04.591Z,95535.00
2022-08-27T09:43:33.194Z,95532.00
2022-08-27T09:49:13.595Z,95531.00
2022-08-27T09:54:45.096Z,95518.00
2022-08-27T10:00:17.768Z,95519.00
2022-08-27T10:05:51.843Z,95510.00
2022-08-27T10:11:36.355Z,95509.00
2022-08-27T10:17:19.813Z,95512.00
2022-08-27T10:23:10.227Z,95509.00
2022-08-27T10:29:13.655Z,95510.00
2022-08-27T10:34:55.581Z,95506.00
2022-08-27T10:41:08.472Z,95506.00
2022-08-27T10:47:04.954Z,95509.00
2022-08-27T10:52:51.654Z,95498.00
2022-08-27T10:58:59.098Z,95497.00
2022-08-27T11:04:37.599Z,95483.00
2022-08-27T11:11:56.990Z,95483.00
2022-08-27T11:17:10.362Z,95472.00
2022-08-27T11:22:49.703Z,95460.00
2022-08-27T11:28:29.723Z,95474.00
2022-08-27T11:34:37.179Z,95475.00
2022-08-27T11:40:49.817Z,95471.00
2022-08-27T11:46:27.373Z,95467.00
2022-08-27T11:52:07.199Z,95462.00
2022-08-27T11:57:36.855Z,95464.00
2022-08-27T12:03:28.429Z,95460.00
2022-08-27T12:09:15.199Z,95446.00
2022-08-27T12:15:27.254Z,95441.00
2022-08-27T12:21:22.128Z,95441.00
2022-08-27T12:27:16.558Z,95428.00
2022-08-27T12:32:46.575Z,95417.00
2022-08-27T12:38:17.605Z,95415.00
2022-08-27T12:43:46.139Z,95409.00
2022-08-27T12:49:38.644Z,95421.00
2022-08-27T12:55:27.314Z,95413.00
2022-08-27T13:01:07.072Z,95409.00
2022-08-27T13:06:39.372Z,95409.00
2022-08-27T13:12:20.260Z,95403.00
2022-08-27T13:17:50.632Z,95391.00
2022-08-27T13:23:24.167Z,95384.00
2022-08-27T13:28:52.781Z,95382.00
2022-08-27T13:34:25.660Z,95378.00
2022-08-27T13:39:57.585Z,95380.00
2022-08-27T13:45:26.710Z,95389.00
2022-08-27T13:50:58.169Z,95387.00
2022-08-27T13:56:33.732Z,95387.00
2022-08-27T14:02:10.632Z,95392.00
2022-08-27T14:07:47.682Z,95399.00
2022-08-27T14:13:22.968Z,95410.00
2022-08-27T14:19:26.703Z,95407.00
2022-08-27T14:24:54.607Z,95404.00
2022-08-27T14:30:29.297Z,95403.00
2022-08-27T14:35:58.097Z,95389.00
2022-08-27T14:41:25.995Z,95387.00
2022-08-27T14:46:54.105Z,95386.00
2022-08-27T14:52:21.969Z,95381.00
2022-08-27T14:57:49.817Z,95372.00
2022-08-27T15:03:18.656Z,95365.00
2022-08-27T15:08:46.440Z,95368.00
2022-08-27T15:14:37.038Z,95368.00
2022-08-27T15:20:09.260Z,95364.00
2022-08-27T15:25:45.165Z,95364.00
2022-08-27T15:31:13.074Z,95367.00
2022-08-27T15:36:41.518Z,95367.00
2022-08-27T15:42:11.061Z,95377.00
2022-08-27T15:47:39.251Z,95379.00
2022-08-27T15:53:09.332Z,95379.00
2022-08-27T15:58:39.632Z,95379.00
2022-08-27T16:04:07.875Z,95390.00
2022-08-27T16:09:35.769Z,95378.00
2022-08-27T16:15:05.883Z,95385.00
2022-08-27T16:20:34.371Z,95383.00
2022-08-27T16:26:03.758Z,95383.00
2022-08-27T16:31:41.311Z,95374.00
2022-08-27T16:37:22.933Z,95373.00
2022-08-27T16:42:52.781Z,95374.00
2022-08-27T16:48:40.373Z,95379.00
2022-08-27T16:54:11.079Z,95387.00
2022-08-27T16:59:38.944Z,95395.00
2022-08-27T17:11:01.790Z,95399.00
2022-08-27T17:16:33.631Z,95398.00
2022-08-27T17:22:02.242Z,95411.00
2022-08-27T17:27:30.074Z,95415.00
2022-08-27T17:32:58.124Z,95418.00
2022-08-27T17:38:31.442Z,95426.00
2022-08-27T17:44:06.768Z,95425.00
2022-08-27T17:49:35.563Z,95430.00
2022-08-27T17:55:04.295Z,95437.00
2022-08-27T18:00:32.966Z,95431.00
2022-08-27T18:06:01.346Z,95432.00
2022-08-27T18:11:29.269Z,95445.00
2022-08-27T18:16:58.114Z,95465.00
2022-08-27T18:22:26.707Z,95471.00
2022-08-27T18:28:00.366Z,95475.00
2022-08-27T18:33:28.298Z,95478.00
2022-08-27T18:38:56.151Z,95495.00
2022-08-27T18:44:24.223Z,95491.00
2022-08-27T18:49:52.112Z,95493.00
2022-08-27T18:55:25.810Z,95497.00
2022-08-27T19:01:01.218Z,95511.00
2022-08-27T19:06:29.355Z,95522.00
2022-08-27T19:11:57.317Z,95524.00
2022-08-27T19:17:36.125Z,95526.00
2022-08-27T19:23:04.158Z,95525.00
2022-08-27T19:28:41.842Z,95521.00
2022-08-27T19:34:09.895Z,95531.00
2022-08-27T19:39:38.523Z,95522.00
2022-08-27T19:45:07.591Z,95528.00
2022-08-27T19:50:35.726Z,95526.00
2022-08-27T19:56:04.957Z,95529.00
2022-08-27T20:01:33.215Z,95534.00
2022-08-27T20:07:01.158Z,95533.00
2022-08-27T20:12:28.978Z,95535.00
2022-08-27T20:17:59.420Z,95536.00
2022-08-27T20:23:27.646Z,95541.00
2022-08-27T20:28:55.956Z,95545.00
2022-08-27T20:34:24.448Z,95542.00
2022-08-27T20:40:40.941Z,95548.00
2022-08-27T20:46:14.471Z,95547.00
2022-08-27T20:51:51.292Z,95556.00
2022-08-27T20:57:32.187Z,95561.00
2022-08-27T21:03:00.397Z,95565.00
2022-08-27T21:08:28.767Z,95557.00
2022-08-27T21:13:57.086Z,95561.00
2022-08-27T21:19:25.850Z,95566.00
2022-08-27T21:24:54.063Z,95580.00
2022-08-27T21:30:22.948Z,95585.00
2022-08-27T21:35:54.370Z,95588.00
2022-08-27T21:41:24.054Z,95588.00
2022-08-27T21:46:51.907Z,95591.00
2022-08-27T21:52:19.913Z,95596.00
2022-08-27T21:57:48.054Z,95593.00
2022-08-27T22:03:20.284Z,95601.00
2022-08-27T22:08:48.707Z,95606.00
2022-08-27T22:14:16.763Z,95612.00
2022-08-27T22:19:44.807Z,95617.00
2022-08-27T22:25:13.531Z,95616.00
2022-08-27T22:30:42.283Z,95607.00
2022-08-27T22:36:10.482Z,95597.00
2022-08-27T22:41:38.269Z,95594.00
2022-08-27T22:47:10.406Z,95592.00
2022-08-27T22:52:42.277Z,95598.00
2022-08-27T22:58:10.337Z,95586.00
2022-08-27T23:03:39.035Z,95591.00
2022-08-27T23:09:07.040Z,95585.00
2022-08-27T23:14:37.135Z,95584.00
2022-08-27T23:20:09.219Z,95579.00
2022-08-27T23:25:55.968Z,95575.00
2022-08-27T23:31:24.199Z,95585.00
2022-08-27T23:36:53.270Z,95575.00
2022-08-27T23:42:21.247Z,95583.00
2022-08-27T23:47:49.452Z,95587.00
2022-08-27T23:53:17.329Z,95592.00
2022-08-27T23:58:45.637Z,95589.00
